Main page
METAR-TAF:

METAR-TAF

Airports :

Hakkari–Yüksekova Airport

Yüksekova, Turkey

latitude: 37-33-06N, longitude: 44-14-01E, elevation: 1950 m

Current weather observation

The report was made 7 hours and 40 minutes ago, at 13:50 UTC
Wind 13 kt from the East
Temperature 13°C
Humidity 82%
Pressure 1023 hPa
Visibility 10 km or more
Few clouds at a height of 2000 ft, Cumulonimbus.
Broken clouds at a height of 3000 ft

METAR: LTCW 201350Z 10013KT 9999 FEW020CB BKN030 13/10 Q1023 RETSRA

Time: 00:30 (21:30 UTC)

Forecast

The report was made 7 hours and 50 minutes ago, at 13:40 UTC
Forecast valid from 20 at 15 UTC to 20 at 24 UTC
Wind 2 kt from variable directions
Visibility 10 km or more
Scattered clouds at a height of 3500 ft
Broken clouds at a height of 9000 ft
Probability 40% :
Temporary
from 20 at 21 UTC to 20 at 24 UTC
Few clouds at a height of 2000 ft, Cumulonimbus.
Broken clouds at a height of 3000 ft
light rain showers

TAF: LTCW 201340Z 2015/2024 VRB02KT 9999 SCT035 BKN090 PROB40 TEMPO 2021/2024 -SHRA FEW020CB BKN030

Weather observations and forecasts of more than 4000 airports (METAR and TAF reports).

The available stations are represented by yellow and red dots on the map.

Hover mouse over dot to see the name of the station.

Then click to see weather observations and forecasts.

To change the map : click on the green buttons with a black cross to zoom in, on the green button with a dash to zoom out, or on the green arrows for adjacent maps.


METAR-TAF: